Aviation Digital Data Service (ADDS)

Output produced by METARs form (1839 UTC 18 June 2019)
found at http://www.aviationweather.gov/metar/data/
 
METAR text: LFRS 181830Z AUTO 23008KT CAVOK 24/16 Q1008 NOSIG
Conditions at: LFRS (NANTES/CHATEAU B, FR) observed 1830 UTC 18 June 2019
Temperature: 24.0°C (75°F)
Dewpoint: 16.0°C (61°F) [RH = 61%]
Pressure (altimeter): 29.76 inches Hg (1008.0 mb)
Winds: from the SW (230 degrees) at 9 MPH (8 knots; 4.1 m/s)
Visibility: 6 or more miles (10+ km)
Ceiling: ceiling and visibility are OK
Clouds: unknown
Weather: no significant weather observed at this time

METAR text: LFRS 181800Z AUTO 23009KT CAVOK 26/17 Q1007 NOSIG
Conditions at: LFRS (NANTES/CHATEAU B, FR) observed 1800 UTC 18 June 2019
Temperature: 26.0°C (79°F)
Dewpoint: 17.0°C (63°F) [RH = 58%]
Pressure (altimeter): 29.73 inches Hg (1007.0 mb)
Winds: from the SW (230 degrees) at 10 MPH (9 knots; 4.6 m/s)
Visibility: 6 or more miles (10+ km)
Ceiling: ceiling and visibility are OK
Clouds: unknown
Weather: no significant weather observed at this time

METAR text: LFRS 181730Z AUTO 21009KT CAVOK 28/16 Q1007 NOSIG
Conditions at: LFRS (NANTES/CHATEAU B, FR) observed 1730 UTC 18 June 2019
Temperature: 28.0°C (82°F)
Dewpoint: 16.0°C (61°F) [RH = 48%]
Pressure (altimeter): 29.73 inches Hg (1007.0 mb)
Winds: from the SSW (210 degrees) at 10 MPH (9 knots; 4.6 m/s)
Visibility: 6 or more miles (10+ km)
Ceiling: ceiling and visibility are OK
Clouds: unknown
Weather: no significant weather observed at this time

METAR text: LFRS 181700Z AUTO 23008KT CAVOK 28/15 Q1007 TEMPO 17010KT
Conditions at: LFRS (NANTES/CHATEAU B, FR) observed 1700 UTC 18 June 2019
Temperature: 28.0°C (82°F)
Dewpoint: 15.0°C (59°F) [RH = 45%]
Pressure (altimeter): 29.73 inches Hg (1007.0 mb)
Winds: from the SW (230 degrees) at 9 MPH (8 knots; 4.1 m/s)
Visibility: 6 or more miles (10+ km)
Ceiling: ceiling and visibility are OK
Clouds: unknown
Weather: no significant weather observed at this time

METAR text: LFRS 181630Z AUTO 20009KT CAVOK 29/15 Q1007 NOSIG
Conditions at: LFRS (NANTES/CHATEAU B, FR) observed 1630 UTC 18 June 2019
Temperature: 29.0°C (84°F)
Dewpoint: 15.0°C (59°F) [RH = 43%]
Pressure (altimeter): 29.73 inches Hg (1007.0 mb)
Winds: from the SSW (200 degrees) at 10 MPH (9 knots; 4.6 m/s)
Visibility: 6 or more miles (10+ km)
Ceiling: ceiling and visibility are OK
Clouds: unknown
Weather: no significant weather observed at this time

METAR text: LFRS 181600Z AUTO 21009KT CAVOK 28/15 Q1007 NOSIG
Conditions at: LFRS (NANTES/CHATEAU B, FR) observed 1600 UTC 18 June 2019
Temperature: 28.0°C (82°F)
Dewpoint: 15.0°C (59°F) [RH = 45%]
Pressure (altimeter): 29.73 inches Hg (1007.0 mb)
Winds: from the SSW (210 degrees) at 10 MPH (9 knots; 4.6 m/s)
Visibility: 6 or more miles (10+ km)
Ceiling: ceiling and visibility are OK
Clouds: unknown
Weather: no significant weather observed at this time

METAR text: LFRS 181530Z AUTO 19009KT 120V220 CAVOK 29/14 Q1007 NOSIG
Conditions at: LFRS (NANTES/CHATEAU B, FR) observed 1530 UTC 18 June 2019
Temperature: 29.0°C (84°F)
Dewpoint: 14.0°C (57°F) [RH = 40%]
Pressure (altimeter): 29.73 inches Hg (1007.0 mb)
Winds: from the S (190 degrees) at 10 MPH (9 knots; 4.6 m/s)
Visibility: 6 or more miles (10+ km)
Ceiling: ceiling and visibility are OK
Clouds: unknown
Weather: no significant weather observed at this time

METAR text: LFRS 181500Z AUTO 18010KT 150V220 CAVOK 29/14 Q1007 NOSIG
Conditions at: LFRS (NANTES/CHATEAU B, FR) observed 1500 UTC 18 June 2019
Temperature: 29.0°C (84°F)
Dewpoint: 14.0°C (57°F) [RH = 40%]
Pressure (altimeter): 29.73 inches Hg (1007.0 mb)
Winds: from the S (180 degrees) at 12 MPH (10 knots; 5.1 m/s)
Visibility: 6 or more miles (10+ km)
Ceiling: ceiling and visibility are OK
Clouds: unknown
Weather: no significant weather observed at this time

METAR text: LFRS 181430Z AUTO 19010KT 160V230 CAVOK 30/15 Q1007 NOSIG
Conditions at: LFRS (NANTES/CHATEAU B, FR) observed 1430 UTC 18 June 2019
Temperature: 30.0°C (86°F)
Dewpoint: 15.0°C (59°F) [RH = 40%]
Pressure (altimeter): 29.73 inches Hg (1007.0 mb)
Winds: from the S (190 degrees) at 12 MPH (10 knots; 5.1 m/s)
Visibility: 6 or more miles (10+ km)
Ceiling: ceiling and visibility are OK
Clouds: unknown
Weather: no significant weather observed at this time

METAR text: LFRS 181400Z AUTO VRB03KT CAVOK 29/17 Q1008 NOSIG
Conditions at: LFRS (NANTES/CHATEAU B, FR) observed 1400 UTC 18 June 2019
Temperature: 29.0°C (84°F)
Dewpoint: 17.0°C (63°F) [RH = 48%]
Pressure (altimeter): 29.76 inches Hg (1008.0 mb)
Winds: variable direction winds at 3 MPH (3 knots; 1.5 m/s)
Visibility: 6 or more miles (10+ km)
Ceiling: ceiling and visibility are OK
Clouds: unknown
Weather: no significant weather observed at this time

METAR text: LFRS 181330Z AUTO VRB03KT CAVOK 29/18 Q1008 NOSIG
Conditions at: LFRS (NANTES/CHATEAU B, FR) observed 1330 UTC 18 June 2019
Temperature: 29.0°C (84°F)
Dewpoint: 18.0°C (64°F) [RH = 52%]
Pressure (altimeter): 29.76 inches Hg (1008.0 mb)
Winds: variable direction winds at 3 MPH (3 knots; 1.5 m/s)
Visibility: 6 or more miles (10+ km)
Ceiling: ceiling and visibility are OK
Clouds: unknown
Weather: no significant weather observed at this time

METAR text: LFRS 181300Z AUTO VRB03KT CAVOK 28/17 Q1008 NOSIG
Conditions at: LFRS (NANTES/CHATEAU B, FR) observed 1300 UTC 18 June 2019
Temperature: 28.0°C (82°F)
Dewpoint: 17.0°C (63°F) [RH = 51%]
Pressure (altimeter): 29.76 inches Hg (1008.0 mb)
Winds: variable direction winds at 3 MPH (3 knots; 1.5 m/s)
Visibility: 6 or more miles (10+ km)
Ceiling: ceiling and visibility are OK
Clouds: unknown
Weather: no significant weather observed at this time

METAR text: LFRS 181230Z AUTO 07004KT 310V120 CAVOK 27/16 Q1008 NOSIG
Conditions at: LFRS (NANTES/CHATEAU B, FR) observed 1230 UTC 18 June 2019
Temperature: 27.0°C (81°F)
Dewpoint: 16.0°C (61°F) [RH = 51%]
Pressure (altimeter): 29.76 inches Hg (1008.0 mb)
Winds: from the ENE (70 degrees) at 5 MPH (4 knots; 2.1 m/s)
Visibility: 6 or more miles (10+ km)
Ceiling: ceiling and visibility are OK
Clouds: unknown
Weather: no significant weather observed at this time

METAR text: LFRS 181200Z AUTO 04006KT 350V110 CAVOK 26/17 Q1009 BECMG 17010KT
Conditions at: LFRS (NANTES/CHATEAU B, FR) observed 1200 UTC 18 June 2019
Temperature: 26.0°C (79°F)
Dewpoint: 17.0°C (63°F) [RH = 58%]
Pressure (altimeter): 29.79 inches Hg (1009.0 mb)
Winds: from the NE (40 degrees) at 7 MPH (6 knots; 3.1 m/s)
Visibility: 6 or more miles (10+ km)
Ceiling: ceiling and visibility are OK
Clouds: unknown
Weather: no significant weather observed at this time

METAR text: LFRS 181130Z AUTO 04007KT 350V100 CAVOK 25/16 Q1009 BECMG 17010KT
Conditions at: LFRS (NANTES/CHATEAU B, FR) observed 1130 UTC 18 June 2019
Temperature: 25.0°C (77°F)
Dewpoint: 16.0°C (61°F) [RH = 57%]
Pressure (altimeter): 29.79 inches Hg (1009.0 mb)
Winds: from the NE (40 degrees) at 8 MPH (7 knots; 3.6 m/s)
Visibility: 6 or more miles (10+ km)
Ceiling: ceiling and visibility are OK
Clouds: unknown
Weather: no significant weather observed at this time

METAR text: LFRS 181100Z AUTO 04007KT 340V080 CAVOK 25/17 Q1009 TEMPO SHRA SCT060CB BECMG 24010KT
Conditions at: LFRS (NANTES/CHATEAU B, FR) observed 1100 UTC 18 June 2019
Temperature: 25.0°C (77°F)
Dewpoint: 17.0°C (63°F) [RH = 61%]
Pressure (altimeter): 29.79 inches Hg (1009.0 mb)
Winds: from the NE (40 degrees) at 8 MPH (7 knots; 3.6 m/s)
Visibility: 6 or more miles (10+ km)
Ceiling: ceiling and visibility are OK
Clouds: unknown
Weather: no significant weather observed at this time

METAR text: LFRS 181030Z AUTO 36008KT 330V050 CAVOK 24/17 Q1009 TEMPO SHRA SCT060CB BECMG 24010KT
Conditions at: LFRS (NANTES/CHATEAU B, FR) observed 1030 UTC 18 June 2019
Temperature: 24.0°C (75°F)
Dewpoint: 17.0°C (63°F) [RH = 65%]
Pressure (altimeter): 29.79 inches Hg (1009.0 mb)
Winds: from the N (360 degrees) at 9 MPH (8 knots; 4.1 m/s)
Visibility: 6 or more miles (10+ km)
Ceiling: ceiling and visibility are OK
Clouds: unknown
Weather: no significant weather observed at this time

METAR text: LFRS 181000Z AUTO 35007KT 300V040 CAVOK 24/17 Q1010 NOSIG
Conditions at: LFRS (NANTES/CHATEAU B, FR) observed 1000 UTC 18 June 2019
Temperature: 24.0°C (75°F)
Dewpoint: 17.0°C (63°F) [RH = 65%]
Pressure (altimeter): 29.82 inches Hg (1010.0 mb)
Winds: from the N (350 degrees) at 8 MPH (7 knots; 3.6 m/s)
Visibility: 6 or more miles (10+ km)
Ceiling: ceiling and visibility are OK
Clouds: unknown
Weather: no significant weather observed at this time

METAR text: LFRS 180930Z AUTO 01003KT 300V050 9999 FEW040 OVC110 24/16 Q1010 NOSIG
Conditions at: LFRS (NANTES/CHATEAU B, FR) observed 0930 UTC 18 June 2019
Temperature: 24.0°C (75°F)
Dewpoint: 16.0°C (61°F) [RH = 61%]
Pressure (altimeter): 29.82 inches Hg (1010.0 mb)
Winds: from the N (10 degrees) at 3 MPH (3 knots; 1.5 m/s)
Visibility: 6 or more miles (10+ km)
Ceiling: 11000 feet AGL
Clouds: few clouds at 4000 feet AGL
overcast cloud deck at 11000 feet AGL
Weather: no significant weather observed at this time

METAR text: LFRS 180900Z AUTO 10004KT 060V150 CAVOK 24/15 Q1009 NOSIG
Conditions at: LFRS (NANTES/CHATEAU B, FR) observed 0900 UTC 18 June 2019
Temperature: 24.0°C (75°F)
Dewpoint: 15.0°C (59°F) [RH = 57%]
Pressure (altimeter): 29.79 inches Hg (1009.0 mb)
Winds: from the E (100 degrees) at 5 MPH (4 knots; 2.1 m/s)
Visibility: 6 or more miles (10+ km)
Ceiling: ceiling and visibility are OK
Clouds: unknown
Weather: no significant weather observed at this time

METAR text: LFRS 180830Z AUTO 11007KT 080V140 CAVOK 23/16 Q1009 NOSIG
Conditions at: LFRS (NANTES/CHATEAU B, FR) observed 0830 UTC 18 June 2019
Temperature: 23.0°C (73°F)
Dewpoint: 16.0°C (61°F) [RH = 65%]
Pressure (altimeter): 29.79 inches Hg (1009.0 mb)
Winds: from the ESE (110 degrees) at 8 MPH (7 knots; 3.6 m/s)
Visibility: 6 or more miles (10+ km)
Ceiling: ceiling and visibility are OK
Clouds: unknown
Weather: no significant weather observed at this time

METAR text: LFRS 180800Z AUTO 11007KT CAVOK 22/16 Q1010 TEMPO SCT060CB
Conditions at: LFRS (NANTES/CHATEAU B, FR) observed 0800 UTC 18 June 2019
Temperature: 22.0°C (72°F)
Dewpoint: 16.0°C (61°F) [RH = 69%]
Pressure (altimeter): 29.82 inches Hg (1010.0 mb)
Winds: from the ESE (110 degrees) at 8 MPH (7 knots; 3.6 m/s)
Visibility: 6 or more miles (10+ km)
Ceiling: ceiling and visibility are OK
Clouds: unknown
Weather: no significant weather observed at this time

METAR text: LFRS 180730Z AUTO 06005KT 030V090 CAVOK 20/16 Q1010 TEMPO SCT060CB
Conditions at: LFRS (NANTES/CHATEAU B, FR) observed 0730 UTC 18 June 2019
Temperature: 20.0°C (68°F)
Dewpoint: 16.0°C (61°F) [RH = 78%]
Pressure (altimeter): 29.82 inches Hg (1010.0 mb)
Winds: from the ENE (60 degrees) at 6 MPH (5 knots; 2.6 m/s)
Visibility: 6 or more miles (10+ km)
Ceiling: ceiling and visibility are OK
Clouds: unknown
Weather: no significant weather observed at this time

METAR text: LFRS 180700Z AUTO 05004KT 020V090 CAVOK 19/15 Q1010 TEMPO TSRA SCT060CB
Conditions at: LFRS (NANTES/CHATEAU B, FR) observed 0700 UTC 18 June 2019
Temperature: 19.0°C (66°F)
Dewpoint: 15.0°C (59°F) [RH = 78%]
Pressure (altimeter): 29.82 inches Hg (1010.0 mb)
Winds: from the NE (50 degrees) at 5 MPH (4 knots; 2.1 m/s)
Visibility: 6 or more miles (10+ km)
Ceiling: ceiling and visibility are OK
Clouds: unknown
Weather: no significant weather observed at this time

METAR text: LFRS 180630Z AUTO 04005KT 9999 ///TCU 18/15 Q1010 TEMPO TSRA SCT060CB
Conditions at: LFRS (NANTES/CHATEAU B, FR) observed 0630 UTC 18 June 2019
Temperature: 18.0°C (64°F)
Dewpoint: 15.0°C (59°F) [RH = 83%]
Pressure (altimeter): 29.82 inches Hg (1010.0 mb)
Winds: from the NE (40 degrees) at 6 MPH (5 knots; 2.6 m/s)
Visibility: 6 or more miles (10+ km)
Ceiling: unknown
Clouds: missing
Weather: no significant weather observed at this time

METAR text: LFRS 180600Z AUTO 10004KT 9999 RA FEW042/// BKN076/// BKN100/// ///TCU 19/14 Q1011 TEMPO TSRA SCT060CB
Conditions at: LFRS (NANTES/CHATEAU B, FR) observed 0600 UTC 18 June 2019
Temperature: 19.0°C (66°F)
Dewpoint: 14.0°C (57°F) [RH = 73%]
Pressure (altimeter): 29.85 inches Hg (1011.0 mb)
Winds: from the E (100 degrees) at 5 MPH (4 knots; 2.1 m/s)
Visibility: 6 or more miles (10+ km)
Ceiling: 7600 feet AGL
Clouds: few clouds at 4200 feet AGL
broken clouds at 7600 feet AGL
broken clouds at 10000 feet AGL
Weather: RA  (moderate rain)

METAR text: LFRS 180530Z AUTO 09008KT 9999 ///CB 19/14 Q1011 NOSIG
Conditions at: LFRS (NANTES/CHATEAU B, FR) observed 0530 UTC 18 June 2019
Temperature: 19.0°C (66°F)
Dewpoint: 14.0°C (57°F) [RH = 73%]
Pressure (altimeter): 29.85 inches Hg (1011.0 mb)
Winds: from the E (90 degrees) at 9 MPH (8 knots; 4.1 m/s)
Visibility: 6 or more miles (10+ km)
Ceiling: unknown
Clouds: missing
Weather: no significant weather observed at this time

METAR text: LFRS 180500Z AUTO 08005KT 060V120 9999 ///TCU 19/13 Q1011 TEMPO SHRA SCT050CB
Conditions at: LFRS (NANTES/CHATEAU B, FR) observed 0500 UTC 18 June 2019
Temperature: 19.0°C (66°F)
Dewpoint: 13.0°C (55°F) [RH = 68%]
Pressure (altimeter): 29.85 inches Hg (1011.0 mb)
Winds: from the E (80 degrees) at 6 MPH (5 knots; 2.6 m/s)
Visibility: 6 or more miles (10+ km)
Ceiling: unknown
Clouds: missing
Weather: no significant weather observed at this time

METAR text: LFRS 180430Z AUTO 06004KT 030V090 CAVOK 19/13 Q1011 TEMPO SHRA SCT050CB
Conditions at: LFRS (NANTES/CHATEAU B, FR) observed 0430 UTC 18 June 2019
Temperature: 19.0°C (66°F)
Dewpoint: 13.0°C (55°F) [RH = 68%]
Pressure (altimeter): 29.85 inches Hg (1011.0 mb)
Winds: from the ENE (60 degrees) at 5 MPH (4 knots; 2.1 m/s)
Visibility: 6 or more miles (10+ km)
Ceiling: ceiling and visibility are OK
Clouds: unknown
Weather: no significant weather observed at this time

METAR text: LFRS 180400Z AUTO 07003KT 020V100 CAVOK 19/14 Q1011 TEMPO SHRA SCT050CB
Conditions at: LFRS (NANTES/CHATEAU B, FR) observed 0400 UTC 18 June 2019
Temperature: 19.0°C (66°F)
Dewpoint: 14.0°C (57°F) [RH = 73%]
Pressure (altimeter): 29.85 inches Hg (1011.0 mb)
Winds: from the ENE (70 degrees) at 3 MPH (3 knots; 1.5 m/s)
Visibility: 6 or more miles (10+ km)
Ceiling: ceiling and visibility are OK
Clouds: unknown
Weather: no significant weather observed at this time

METAR text: LFRS 180330Z AUTO VRB03KT CAVOK 19/13 Q1012 TEMPO SHRA SCT050CB
Conditions at: LFRS (NANTES/CHATEAU B, FR) observed 0330 UTC 18 June 2019
Temperature: 19.0°C (66°F)
Dewpoint: 13.0°C (55°F) [RH = 68%]
Pressure (altimeter): 29.88 inches Hg (1012.0 mb)
Winds: variable direction winds at 3 MPH (3 knots; 1.5 m/s)
Visibility: 6 or more miles (10+ km)
Ceiling: ceiling and visibility are OK
Clouds: unknown
Weather: no significant weather observed at this time

METAR text: LFRS 180300Z AUTO 05004KT 010V080 CAVOK 20/13 Q1012 TEMPO SHRA SCT050CB
Conditions at: LFRS (NANTES/CHATEAU B, FR) observed 0300 UTC 18 June 2019
Temperature: 20.0°C (68°F)
Dewpoint: 13.0°C (55°F) [RH = 64%]
Pressure (altimeter): 29.88 inches Hg (1012.0 mb)
Winds: from the NE (50 degrees) at 5 MPH (4 knots; 2.1 m/s)
Visibility: 6 or more miles (10+ km)
Ceiling: ceiling and visibility are OK
Clouds: unknown
Weather: no significant weather observed at this time

METAR text: LFRS 180230Z AUTO 04004KT 020V080 CAVOK 20/13 Q1012 TEMPO SHRA SCT050CB
Conditions at: LFRS (NANTES/CHATEAU B, FR) observed 0230 UTC 18 June 2019
Temperature: 20.0°C (68°F)
Dewpoint: 13.0°C (55°F) [RH = 64%]
Pressure (altimeter): 29.88 inches Hg (1012.0 mb)
Winds: from the NE (40 degrees) at 5 MPH (4 knots; 2.1 m/s)
Visibility: 6 or more miles (10+ km)
Ceiling: ceiling and visibility are OK
Clouds: unknown
Weather: no significant weather observed at this time

METAR text: LFRS 180200Z AUTO VRB03KT CAVOK 19/13 Q1012 TEMPO SHRA SCT050CB
Conditions at: LFRS (NANTES/CHATEAU B, FR) observed 0200 UTC 18 June 2019
Temperature: 19.0°C (66°F)
Dewpoint: 13.0°C (55°F) [RH = 68%]
Pressure (altimeter): 29.88 inches Hg (1012.0 mb)
Winds: variable direction winds at 3 MPH (3 knots; 1.5 m/s)
Visibility: 6 or more miles (10+ km)
Ceiling: ceiling and visibility are OK
Clouds: unknown
Weather: no significant weather observed at this time

METAR text: LFRS 180130Z AUTO VRB02KT CAVOK 20/14 Q1012 TEMPO SHRA SCT050CB
Conditions at: LFRS (NANTES/CHATEAU B, FR) observed 0130 UTC 18 June 2019
Temperature: 20.0°C (68°F)
Dewpoint: 14.0°C (57°F) [RH = 68%]
Pressure (altimeter): 29.88 inches Hg (1012.0 mb)
Winds: variable direction winds at 2 MPH (2 knots; 1.0 m/s)
Visibility: 6 or more miles (10+ km)
Ceiling: ceiling and visibility are OK
Clouds: unknown
Weather: no significant weather observed at this time

METAR text: LFRS 180100Z AUTO 06007KT CAVOK 20/14 Q1012 NOSIG
Conditions at: LFRS (NANTES/CHATEAU B, FR) observed 0100 UTC 18 June 2019
Temperature: 20.0°C (68°F)
Dewpoint: 14.0°C (57°F) [RH = 68%]
Pressure (altimeter): 29.88 inches Hg (1012.0 mb)
Winds: from the ENE (60 degrees) at 8 MPH (7 knots; 3.6 m/s)
Visibility: 6 or more miles (10+ km)
Ceiling: ceiling and visibility are OK
Clouds: unknown
Weather: no significant weather observed at this time

METAR text: LFRS 180030Z AUTO 05004KT 360V090 CAVOK 21/13 Q1013 NOSIG
Conditions at: LFRS (NANTES/CHATEAU B, FR) observed 0030 UTC 18 June 2019
Temperature: 21.0°C (70°F)
Dewpoint: 13.0°C (55°F) [RH = 60%]
Pressure (altimeter): 29.91 inches Hg (1013.0 mb)
Winds: from the NE (50 degrees) at 5 MPH (4 knots; 2.1 m/s)
Visibility: 6 or more miles (10+ km)
Ceiling: ceiling and visibility are OK
Clouds: unknown
Weather: no significant weather observed at this time

METAR text: LFRS 180000Z AUTO 03003KT 340V060 CAVOK 21/13 Q1013 NOSIG
Conditions at: LFRS (NANTES/CHATEAU B, FR) observed 0000 UTC 18 June 2019
Temperature: 21.0°C (70°F)
Dewpoint: 13.0°C (55°F) [RH = 60%]
Pressure (altimeter): 29.91 inches Hg (1013.0 mb)
Winds: from the NNE (30 degrees) at 3 MPH (3 knots; 1.5 m/s)
Visibility: 6 or more miles (10+ km)
Ceiling: ceiling and visibility are OK
Clouds: unknown
Weather: no significant weather observed at this time

METAR text: LFRS 172330Z AUTO VRB03KT CAVOK 21/13 Q1014 NOSIG
Conditions at: LFRS (NANTES/CHATEAU B, FR) observed 2330 UTC 17 June 2019
Temperature: 21.0°C (70°F)
Dewpoint: 13.0°C (55°F) [RH = 60%]
Pressure (altimeter): 29.94 inches Hg (1014.0 mb)
Winds: variable direction winds at 3 MPH (3 knots; 1.5 m/s)
Visibility: 6 or more miles (10+ km)
Ceiling: ceiling and visibility are OK
Clouds: unknown
Weather: no significant weather observed at this time

METAR text: LFRS 172300Z AUTO 03003KT 360V060 CAVOK 21/14 Q1014 NOSIG
Conditions at: LFRS (NANTES/CHATEAU B, FR) observed 2300 UTC 17 June 2019
Temperature: 21.0°C (70°F)
Dewpoint: 14.0°C (57°F) [RH = 64%]
Pressure (altimeter): 29.94 inches Hg (1014.0 mb)
Winds: from the NNE (30 degrees) at 3 MPH (3 knots; 1.5 m/s)
Visibility: 6 or more miles (10+ km)
Ceiling: ceiling and visibility are OK
Clouds: unknown
Weather: no significant weather observed at this time

METAR text: LFRS 172230Z AUTO 03003KT 360V070 CAVOK 21/14 Q1014 NOSIG
Conditions at: LFRS (NANTES/CHATEAU B, FR) observed 2230 UTC 17 June 2019
Temperature: 21.0°C (70°F)
Dewpoint: 14.0°C (57°F) [RH = 64%]
Pressure (altimeter): 29.94 inches Hg (1014.0 mb)
Winds: from the NNE (30 degrees) at 3 MPH (3 knots; 1.5 m/s)
Visibility: 6 or more miles (10+ km)
Ceiling: ceiling and visibility are OK
Clouds: unknown
Weather: no significant weather observed at this time

METAR text: LFRS 172200Z AUTO 03004KT 360V060 CAVOK 22/14 Q1014 NOSIG
Conditions at: LFRS (NANTES/CHATEAU B, FR) observed 2200 UTC 17 June 2019
Temperature: 22.0°C (72°F)
Dewpoint: 14.0°C (57°F) [RH = 60%]
Pressure (altimeter): 29.94 inches Hg (1014.0 mb)
Winds: from the NNE (30 degrees) at 5 MPH (4 knots; 2.1 m/s)
Visibility: 6 or more miles (10+ km)
Ceiling: ceiling and visibility are OK
Clouds: unknown
Weather: no significant weather observed at this time

METAR text: LFRS 172130Z AUTO 04004KT 020V080 CAVOK 23/13 Q1014 NOSIG
Conditions at: LFRS (NANTES/CHATEAU B, FR) observed 2130 UTC 17 June 2019
Temperature: 23.0°C (73°F)
Dewpoint: 13.0°C (55°F) [RH = 53%]
Pressure (altimeter): 29.94 inches Hg (1014.0 mb)
Winds: from the NE (40 degrees) at 5 MPH (4 knots; 2.1 m/s)
Visibility: 6 or more miles (10+ km)
Ceiling: ceiling and visibility are OK
Clouds: unknown
Weather: no significant weather observed at this time

METAR text: LFRS 172100Z AUTO 03003KT 360V060 CAVOK 23/13 Q1014 NOSIG
Conditions at: LFRS (NANTES/CHATEAU B, FR) observed 2100 UTC 17 June 2019
Temperature: 23.0°C (73°F)
Dewpoint: 13.0°C (55°F) [RH = 53%]
Pressure (altimeter): 29.94 inches Hg (1014.0 mb)
Winds: from the NNE (30 degrees) at 3 MPH (3 knots; 1.5 m/s)
Visibility: 6 or more miles (10+ km)
Ceiling: ceiling and visibility are OK
Clouds: unknown
Weather: no significant weather observed at this time

METAR text: LFRS 172030Z AUTO 04004KT CAVOK 24/12 Q1014 NOSIG
Conditions at: LFRS (NANTES/CHATEAU B, FR) observed 2030 UTC 17 June 2019
Temperature: 24.0°C (75°F)
Dewpoint: 12.0°C (54°F) [RH = 47%]
Pressure (altimeter): 29.94 inches Hg (1014.0 mb)
Winds: from the NE (40 degrees) at 5 MPH (4 knots; 2.1 m/s)
Visibility: 6 or more miles (10+ km)
Ceiling: ceiling and visibility are OK
Clouds: unknown
Weather: no significant weather observed at this time

METAR text: LFRS 172000Z AUTO 05005KT CAVOK 24/12 Q1014 NOSIG
Conditions at: LFRS (NANTES/CHATEAU B, FR) observed 2000 UTC 17 June 2019
Temperature: 24.0°C (75°F)
Dewpoint: 12.0°C (54°F) [RH = 47%]
Pressure (altimeter): 29.94 inches Hg (1014.0 mb)
Winds: from the NE (50 degrees) at 6 MPH (5 knots; 2.6 m/s)
Visibility: 6 or more miles (10+ km)
Ceiling: ceiling and visibility are OK
Clouds: unknown
Weather: no significant weather observed at this time

METAR text: LFRS 171930Z AUTO 04005KT 020V090 CAVOK 25/12 Q1014 NOSIG
Conditions at: LFRS (NANTES/CHATEAU B, FR) observed 1930 UTC 17 June 2019
Temperature: 25.0°C (77°F)
Dewpoint: 12.0°C (54°F) [RH = 44%]
Pressure (altimeter): 29.94 inches Hg (1014.0 mb)
Winds: from the NE (40 degrees) at 6 MPH (5 knots; 2.6 m/s)
Visibility: 6 or more miles (10+ km)
Ceiling: ceiling and visibility are OK
Clouds: unknown
Weather: no significant weather observed at this time

METAR text: LFRS 171900Z AUTO 05005KT 020V080 CAVOK 25/12 Q1014 NOSIG
Conditions at: LFRS (NANTES/CHATEAU B, FR) observed 1900 UTC 17 June 2019
Temperature: 25.0°C (77°F)
Dewpoint: 12.0°C (54°F) [RH = 44%]
Pressure (altimeter): 29.94 inches Hg (1014.0 mb)
Winds: from the NE (50 degrees) at 6 MPH (5 knots; 2.6 m/s)
Visibility: 6 or more miles (10+ km)
Ceiling: ceiling and visibility are OK
Clouds: unknown
Weather: no significant weather observed at this time

METAR text: LFRS 171830Z AUTO 06007KT CAVOK 26/11 Q1014 NOSIG
Conditions at: LFRS (NANTES/CHATEAU B, FR) observed 1830 UTC 17 June 2019
Temperature: 26.0°C (79°F)
Dewpoint: 11.0°C (52°F) [RH = 39%]
Pressure (altimeter): 29.94 inches Hg (1014.0 mb)
Winds: from the ENE (60 degrees) at 8 MPH (7 knots; 3.6 m/s)
Visibility: 6 or more miles (10+ km)
Ceiling: ceiling and visibility are OK
Clouds: unknown
Weather: no significant weather observed at this time

METAR text: LFRS 171800Z AUTO 07008KT 050V110 CAVOK 26/13 Q1014 NOSIG
Conditions at: LFRS (NANTES/CHATEAU B, FR) observed 1800 UTC 17 June 2019
Temperature: 26.0°C (79°F)
Dewpoint: 13.0°C (55°F) [RH = 45%]
Pressure (altimeter): 29.94 inches Hg (1014.0 mb)
Winds: from the ENE (70 degrees) at 9 MPH (8 knots; 4.1 m/s)
Visibility: 6 or more miles (10+ km)
Ceiling: ceiling and visibility are OK
Clouds: unknown
Weather: no significant weather observed at this time

METAR text: LFRS 171730Z AUTO 03006KT 350V070 CAVOK 27/12 Q1014 NOSIG
Conditions at: LFRS (NANTES/CHATEAU B, FR) observed 1730 UTC 17 June 2019
Temperature: 27.0°C (81°F)
Dewpoint: 12.0°C (54°F) [RH = 39%]
Pressure (altimeter): 29.94 inches Hg (1014.0 mb)
Winds: from the NNE (30 degrees) at 7 MPH (6 knots; 3.1 m/s)
Visibility: 6 or more miles (10+ km)
Ceiling: ceiling and visibility are OK
Clouds: unknown
Weather: no significant weather observed at this time

METAR text: LFRS 171700Z AUTO VRB03KT CAVOK 27/13 Q1014 NOSIG
Conditions at: LFRS (NANTES/CHATEAU B, FR) observed 1700 UTC 17 June 2019
Temperature: 27.0°C (81°F)
Dewpoint: 13.0°C (55°F) [RH = 42%]
Pressure (altimeter): 29.94 inches Hg (1014.0 mb)
Winds: variable direction winds at 3 MPH (3 knots; 1.5 m/s)
Visibility: 6 or more miles (10+ km)
Ceiling: ceiling and visibility are OK
Clouds: unknown
Weather: no significant weather observed at this time

METAR text: LFRS 171630Z AUTO 07004KT 010V130 CAVOK 27/11 Q1014 NOSIG
Conditions at: LFRS (NANTES/CHATEAU B, FR) observed 1630 UTC 17 June 2019
Temperature: 27.0°C (81°F)
Dewpoint: 11.0°C (52°F) [RH = 37%]
Pressure (altimeter): 29.94 inches Hg (1014.0 mb)
Winds: from the ENE (70 degrees) at 5 MPH (4 knots; 2.1 m/s)
Visibility: 6 or more miles (10+ km)
Ceiling: ceiling and visibility are OK
Clouds: unknown
Weather: no significant weather observed at this time

METAR text: LFRS 171600Z AUTO 11003KT 030V200 CAVOK 27/12 Q1015 NOSIG
Conditions at: LFRS (NANTES/CHATEAU B, FR) observed 1600 UTC 17 June 2019
Temperature: 27.0°C (81°F)
Dewpoint: 12.0°C (54°F) [RH = 39%]
Pressure (altimeter): 29.97 inches Hg (1015.0 mb)
Winds: from the ESE (110 degrees) at 3 MPH (3 knots; 1.5 m/s)
Visibility: 6 or more miles (10+ km)
Ceiling: ceiling and visibility are OK
Clouds: unknown
Weather: no significant weather observed at this time

METAR text: LFRS 171530Z AUTO VRB03KT CAVOK 27/12 Q1015 NOSIG
Conditions at: LFRS (NANTES/CHATEAU B, FR) observed 1530 UTC 17 June 2019
Temperature: 27.0°C (81°F)
Dewpoint: 12.0°C (54°F) [RH = 39%]
Pressure (altimeter): 29.97 inches Hg (1015.0 mb)
Winds: variable direction winds at 3 MPH (3 knots; 1.5 m/s)
Visibility: 6 or more miles (10+ km)
Ceiling: ceiling and visibility are OK
Clouds: unknown
Weather: no significant weather observed at this time

METAR text: LFRS 171500Z AUTO VRB03KT CAVOK 27/12 Q1015 NOSIG
Conditions at: LFRS (NANTES/CHATEAU B, FR) observed 1500 UTC 17 June 2019
Temperature: 27.0°C (81°F)
Dewpoint: 12.0°C (54°F) [RH = 39%]
Pressure (altimeter): 29.97 inches Hg (1015.0 mb)
Winds: variable direction winds at 3 MPH (3 knots; 1.5 m/s)
Visibility: 6 or more miles (10+ km)
Ceiling: ceiling and visibility are OK
Clouds: unknown
Weather: no significant weather observed at this time

METAR text: LFRS 171430Z AUTO 05005KT 360V080 CAVOK 27/11 Q1015 NOSIG
Conditions at: LFRS (NANTES/CHATEAU B, FR) observed 1430 UTC 17 June 2019
Temperature: 27.0°C (81°F)
Dewpoint: 11.0°C (52°F) [RH = 37%]
Pressure (altimeter): 29.97 inches Hg (1015.0 mb)
Winds: from the NE (50 degrees) at 6 MPH (5 knots; 2.6 m/s)
Visibility: 6 or more miles (10+ km)
Ceiling: ceiling and visibility are OK
Clouds: unknown
Weather: no significant weather observed at this time

METAR text: LFRS 171400Z AUTO VRB04KT CAVOK 26/12 Q1016 NOSIG
Conditions at: LFRS (NANTES/CHATEAU B, FR) observed 1400 UTC 17 June 2019
Temperature: 26.0°C (79°F)
Dewpoint: 12.0°C (54°F) [RH = 42%]
Pressure (altimeter): 30.00 inches Hg (1016.0 mb)
Winds: variable direction winds at 5 MPH (4 knots; 2.1 m/s)
Visibility: 6 or more miles (10+ km)
Ceiling: ceiling and visibility are OK
Clouds: unknown
Weather: no significant weather observed at this time

METAR text: LFRS 171330Z AUTO 10005KT 040V180 CAVOK 26/12 Q1016 NOSIG
Conditions at: LFRS (NANTES/CHATEAU B, FR) observed 1330 UTC 17 June 2019
Temperature: 26.0°C (79°F)
Dewpoint: 12.0°C (54°F) [RH = 42%]
Pressure (altimeter): 30.00 inches Hg (1016.0 mb)
Winds: from the E (100 degrees) at 6 MPH (5 knots; 2.6 m/s)
Visibility: 6 or more miles (10+ km)
Ceiling: ceiling and visibility are OK
Clouds: unknown
Weather: no significant weather observed at this time

METAR text: LFRS 171300Z AUTO VRB03KT CAVOK 26/13 Q1017 NOSIG
Conditions at: LFRS (NANTES/CHATEAU B, FR) observed 1300 UTC 17 June 2019
Temperature: 26.0°C (79°F)
Dewpoint: 13.0°C (55°F) [RH = 45%]
Pressure (altimeter): 30.03 inches Hg (1017.0 mb)
Winds: variable direction winds at 3 MPH (3 knots; 1.5 m/s)
Visibility: 6 or more miles (10+ km)
Ceiling: ceiling and visibility are OK
Clouds: unknown
Weather: no significant weather observed at this time

METAR text: LFRS 171230Z AUTO VRB04KT CAVOK 25/12 Q1017 NOSIG
Conditions at: LFRS (NANTES/CHATEAU B, FR) observed 1230 UTC 17 June 2019
Temperature: 25.0°C (77°F)
Dewpoint: 12.0°C (54°F) [RH = 44%]
Pressure (altimeter): 30.03 inches Hg (1017.0 mb)
Winds: variable direction winds at 5 MPH (4 knots; 2.1 m/s)
Visibility: 6 or more miles (10+ km)
Ceiling: ceiling and visibility are OK
Clouds: unknown
Weather: no significant weather observed at this time

METAR text: LFRS 171200Z AUTO 06005KT 350V130 CAVOK 25/12 Q1017 NOSIG
Conditions at: LFRS (NANTES/CHATEAU B, FR) observed 1200 UTC 17 June 2019
Temperature: 25.0°C (77°F)
Dewpoint: 12.0°C (54°F) [RH = 44%]
Pressure (altimeter): 30.03 inches Hg (1017.0 mb)
Winds: from the ENE (60 degrees) at 6 MPH (5 knots; 2.6 m/s)
Visibility: 6 or more miles (10+ km)
Ceiling: ceiling and visibility are OK
Clouds: unknown
Weather: no significant weather observed at this time

METAR text: LFRS 171130Z AUTO VRB05KT CAVOK 24/12 Q1017 NOSIG
Conditions at: LFRS (NANTES/CHATEAU B, FR) observed 1130 UTC 17 June 2019
Temperature: 24.0°C (75°F)
Dewpoint: 12.0°C (54°F) [RH = 47%]
Pressure (altimeter): 30.03 inches Hg (1017.0 mb)
Winds: variable direction winds at 6 MPH (5 knots; 2.6 m/s)
Visibility: 6 or more miles (10+ km)
Ceiling: ceiling and visibility are OK
Clouds: unknown
Weather: no significant weather observed at this time

METAR text: LFRS 171100Z AUTO 05005KT 360V150 CAVOK 24/12 Q1017 NOSIG
Conditions at: LFRS (NANTES/CHATEAU B, FR) observed 1100 UTC 17 June 2019
Temperature: 24.0°C (75°F)
Dewpoint: 12.0°C (54°F) [RH = 47%]
Pressure (altimeter): 30.03 inches Hg (1017.0 mb)
Winds: from the NE (50 degrees) at 6 MPH (5 knots; 2.6 m/s)
Visibility: 6 or more miles (10+ km)
Ceiling: ceiling and visibility are OK
Clouds: unknown
Weather: no significant weather observed at this time

METAR text: LFRS 171030Z AUTO 09006KT 020V120 CAVOK 23/13 Q1018 NOSIG
Conditions at: LFRS (NANTES/CHATEAU B, FR) observed 1030 UTC 17 June 2019
Temperature: 23.0°C (73°F)
Dewpoint: 13.0°C (55°F) [RH = 53%]
Pressure (altimeter): 30.06 inches Hg (1018.0 mb)
Winds: from the E (90 degrees) at 7 MPH (6 knots; 3.1 m/s)
Visibility: 6 or more miles (10+ km)
Ceiling: ceiling and visibility are OK
Clouds: unknown
Weather: no significant weather observed at this time

METAR text: LFRS 171000Z AUTO 08006KT 050V130 CAVOK 22/13 Q1018 NOSIG
Conditions at: LFRS (NANTES/CHATEAU B, FR) observed 1000 UTC 17 June 2019
Temperature: 22.0°C (72°F)
Dewpoint: 13.0°C (55°F) [RH = 57%]
Pressure (altimeter): 30.06 inches Hg (1018.0 mb)
Winds: from the E (80 degrees) at 7 MPH (6 knots; 3.1 m/s)
Visibility: 6 or more miles (10+ km)
Ceiling: ceiling and visibility are OK
Clouds: unknown
Weather: no significant weather observed at this time

METAR text: LFRS 170930Z AUTO 05007KT 020V100 CAVOK 21/12 Q1018 NOSIG
Conditions at: LFRS (NANTES/CHATEAU B, FR) observed 0930 UTC 17 June 2019
Temperature: 21.0°C (70°F)
Dewpoint: 12.0°C (54°F) [RH = 56%]
Pressure (altimeter): 30.06 inches Hg (1018.0 mb)
Winds: from the NE (50 degrees) at 8 MPH (7 knots; 3.6 m/s)
Visibility: 6 or more miles (10+ km)
Ceiling: ceiling and visibility are OK
Clouds: unknown
Weather: no significant weather observed at this time

METAR text: LFRS 170900Z AUTO 05006KT 360V100 CAVOK 20/11 Q1018 NOSIG
Conditions at: LFRS (NANTES/CHATEAU B, FR) observed 0900 UTC 17 June 2019
Temperature: 20.0°C (68°F)
Dewpoint: 11.0°C (52°F) [RH = 56%]
Pressure (altimeter): 30.06 inches Hg (1018.0 mb)
Winds: from the NE (50 degrees) at 7 MPH (6 knots; 3.1 m/s)
Visibility: 6 or more miles (10+ km)
Ceiling: ceiling and visibility are OK
Clouds: unknown
Weather: no significant weather observed at this time

METAR text: LFRS 170830Z AUTO 03006KT 360V070 CAVOK 19/11 Q1019 NOSIG
Conditions at: LFRS (NANTES/CHATEAU B, FR) observed 0830 UTC 17 June 2019
Temperature: 19.0°C (66°F)
Dewpoint: 11.0°C (52°F) [RH = 60%]
Pressure (altimeter): 30.09 inches Hg (1019.0 mb)
Winds: from the NNE (30 degrees) at 7 MPH (6 knots; 3.1 m/s)
Visibility: 6 or more miles (10+ km)
Ceiling: ceiling and visibility are OK
Clouds: unknown
Weather: no significant weather observed at this time

METAR text: LFRS 170800Z AUTO 04007KT 020V080 CAVOK 18/10 Q1019 NOSIG
Conditions at: LFRS (NANTES/CHATEAU B, FR) observed 0800 UTC 17 June 2019
Temperature: 18.0°C (64°F)
Dewpoint: 10.0°C (50°F) [RH = 59%]
Pressure (altimeter): 30.09 inches Hg (1019.0 mb)
Winds: from the NE (40 degrees) at 8 MPH (7 knots; 3.6 m/s)
Visibility: 6 or more miles (10+ km)
Ceiling: ceiling and visibility are OK
Clouds: unknown
Weather: no significant weather observed at this time

METAR text: LFRS 170730Z AUTO 05008KT CAVOK 18/10 Q1019 NOSIG
Conditions at: LFRS (NANTES/CHATEAU B, FR) observed 0730 UTC 17 June 2019
Temperature: 18.0°C (64°F)
Dewpoint: 10.0°C (50°F) [RH = 59%]
Pressure (altimeter): 30.09 inches Hg (1019.0 mb)
Winds: from the NE (50 degrees) at 9 MPH (8 knots; 4.1 m/s)
Visibility: 6 or more miles (10+ km)
Ceiling: ceiling and visibility are OK
Clouds: unknown
Weather: no significant weather observed at this time

METAR text: LFRS 170700Z AUTO 05006KT 010V080 CAVOK 17/10 Q1019 NOSIG
Conditions at: LFRS (NANTES/CHATEAU B, FR) observed 0700 UTC 17 June 2019
Temperature: 17.0°C (63°F)
Dewpoint: 10.0°C (50°F) [RH = 63%]
Pressure (altimeter): 30.09 inches Hg (1019.0 mb)
Winds: from the NE (50 degrees) at 7 MPH (6 knots; 3.1 m/s)
Visibility: 6 or more miles (10+ km)
Ceiling: ceiling and visibility are OK
Clouds: unknown
Weather: no significant weather observed at this time

Forecast for: LFRS (NANTES/CHATEAU B, FR)
Text: TAF LFRS 181700Z 1818/1924 26008KT CAVOK
Forecast period: 1800 UTC 18 June 2019 to 0000 UTC 20 June 2019
Forecast type: FROM: standard forecast or significant change
Winds: from the W (260 degrees) at 9 MPH (8 knots; 4.1 m/s)
Visibility: 6 or more miles 10+ km)
Ceiling: unknown
Clouds: missing
Weather: NSW  (no significant weather)
Text: PROB30
Forecast period: 2200 UTC 18 June 2019 to 0000 UTC 19 June 2019
Forecast type: TEMPORARY: The following changes expected for less than half the time period
Visibility: missing
Ceiling: 300 feet AGL
Clouds: broken clouds at 300 feet AGL
Weather: no significant weather forecast for this period
Text: TEMPO 1822/1824 BKN003
Forecast period: 0000 to 1200 UTC 19 June 2019
Forecast type: TEMPORARY: The following changes expected for less than half the time period
Visibility: missing
Ceiling: at least 12,000 feet AGL
Clouds: scattered clouds at 5000 feet AGL
Weather: -SHRA  (light rain showers)
Text: TEMPO 1900/1912 -SHRA SCT050TCU
Forecast period: 0400 to 0900 UTC 19 June 2019
Forecast type: TEMPORARY: The following changes expected for less than half the time period
Visibility: missing
Ceiling: 1000 feet AGL
Clouds: broken clouds at 1000 feet AGL
scattered clouds at 4000 feet AGL
Weather: -SHRA  (light rain showers)
Text: PROB30
Forecast period: 1200 to 1800 UTC 19 June 2019
Forecast type: TEMPORARY: The following changes expected for less than half the time period
Winds: from the WSW (240 degrees) at 17 MPH (15 knots; 7.7 m/s)
gusting to 29 MPH (25 knots; 12.9 m/s)
Visibility: missing
Ceiling: at least 12,000 feet AGL
Clouds: scattered clouds at 2000 feet AGL
Weather: -SHRA  (light rain showers)
Text: TEMPO 1904/1909 -SHRA BKN010 SCT040TCU
Forecast period: 1800 UTC 19 June 2019 to 0000 UTC 20 June 2019
Forecast type: TEMPORARY: The following changes expected for less than half the time period
Visibility: missing
Ceiling: 1000 feet AGL
Clouds: broken clouds at 1000 feet AGL
scattered clouds at 2000 feet AGL
Weather: -SHRA  (light rain showers)